createdAt,value
2022-08-03T00:01:09.716Z,64.21
2022-08-03T00:03:36.150Z,64.38
2022-08-03T00:06:02.645Z,64.51
2022-08-03T00:08:28.878Z,65.15
2022-08-03T00:10:55.238Z,65.87
2022-08-03T00:13:21.675Z,65.28
2022-08-03T00:15:48.052Z,65.24
2022-08-03T00:18:14.421Z,65.75
2022-08-03T00:20:40.871Z,65.99
2022-08-03T00:23:07.305Z,66.10
2022-08-03T00:25:33.682Z,65.85
2022-08-03T00:28:00.046Z,66.71
2022-08-03T00:30:26.848Z,66.88
2022-08-03T00:32:52.933Z,66.74
2022-08-03T00:35:32.606Z,67.45
2022-08-03T00:37:45.702Z,67.68
2022-08-03T00:40:12.074Z,67.57
2022-08-03T00:42:38.450Z,67.58
2022-08-03T00:45:04.832Z,68.12
2022-08-03T00:47:31.229Z,68.47
2022-08-03T00:49:57.662Z,68.83
2022-08-03T00:52:24.040Z,68.95
2022-08-03T00:54:50.407Z,68.87
2022-08-03T00:57:16.773Z,68.76
2022-08-03T00:59:43.184Z,69.30
2022-08-03T01:02:09.663Z,69.84
2022-08-03T01:04:35.983Z,70.46
2022-08-03T01:07:02.353Z,70.16
2022-08-03T01:09:28.721Z,70.28
2022-08-03T01:12:00.147Z,70.15
2022-08-03T01:14:21.580Z,70.68
2022-08-03T01:16:47.942Z,70.56
2022-08-03T01:19:14.326Z,71.27
2022-08-03T01:21:40.713Z,71.47
2022-08-03T01:24:07.104Z,70.71
2022-08-03T01:26:33.473Z,71.31
2022-08-03T01:28:59.842Z,71.60
2022-08-03T01:31:26.233Z,71.43
2022-08-03T01:36:18.757Z,72.37
2022-08-03T01:38:45.191Z,72.41
2022-08-03T01:41:11.573Z,72.38
2022-08-03T01:44:27.852Z,72.82
2022-08-03T01:46:04.337Z,73.00
2022-08-03T01:48:30.692Z,73.05
2022-08-03T01:50:57.061Z,73.63
2022-08-03T01:53:23.462Z,73.93
2022-08-03T01:55:49.926Z,73.95
2022-08-03T01:58:16.348Z,73.73
2022-08-03T02:00:42.786Z,73.68
2022-08-03T02:03:09.215Z,73.62
2022-08-03T02:05:35.654Z,73.45
2022-08-03T02:08:02.040Z,73.46
2022-08-03T02:10:34.711Z,73.67
2022-08-03T02:12:54.803Z,73.36
2022-08-03T02:15:21.279Z,73.43
2022-08-03T02:17:47.641Z,73.70
2022-08-03T02:20:14.037Z,73.99
2022-08-03T02:22:40.388Z,74.11
2022-08-03T02:25:06.907Z,74.46
2022-08-03T02:27:33.286Z,74.69
2022-08-03T02:29:59.775Z,74.51
2022-08-03T02:32:26.135Z,74.34
2022-08-03T02:34:52.537Z,74.04
2022-08-03T02:37:18.915Z,74.38
2022-08-03T02:39:45.281Z,74.29
2022-08-03T02:42:12.241Z,74.30
2022-08-03T02:44:38.106Z,74.29
2022-08-03T02:47:04.507Z,74.34
2022-08-03T02:49:40.864Z,75.01
2022-08-03T02:51:57.256Z,75.16
2022-08-03T02:54:23.622Z,75.23
2022-08-03T02:56:50.023Z,75.70
2022-08-03T02:59:16.463Z,75.94
2022-08-03T03:01:42.823Z,75.84
2022-08-03T03:04:09.192Z,76.37
2022-08-03T03:06:35.573Z,75.97
2022-08-03T03:09:01.984Z,75.30
2022-08-03T03:11:28.417Z,74.53
2022-08-03T03:13:54.844Z,74.79
2022-08-03T03:16:21.223Z,74.66
2022-08-03T03:18:47.598Z,74.97
2022-08-03T03:21:13.959Z,75.76
2022-08-03T03:23:40.327Z,76.48
2022-08-03T03:26:06.716Z,77.00
2022-08-03T03:28:33.081Z,77.34
2022-08-03T03:30:59.440Z,77.67
2022-08-03T03:33:28.262Z,77.99
2022-08-03T03:35:52.272Z,77.90
2022-08-03T03:38:18.776Z,77.83
2022-08-03T03:40:45.135Z,77.55
2022-08-03T03:43:11.537Z,77.86
2022-08-03T03:45:37.935Z,78.25
2022-08-03T03:48:04.398Z,78.04
2022-08-03T03:50:30.783Z,77.61
2022-08-03T03:52:57.268Z,77.78
2022-08-03T03:55:23.703Z,77.65
2022-08-03T03:57:50.084Z,76.93
2022-08-03T04:00:16.470Z,76.69
2022-08-03T04:02:42.836Z,76.35
2022-08-03T04:05:09.233Z,75.98
2022-08-03T04:07:35.634Z,75.97
2022-08-03T04:10:14.423Z,75.44
2022-08-03T04:12:28.425Z,75.06
2022-08-03T04:14:54.813Z,74.63
2022-08-03T04:17:21.202Z,74.53
2022-08-03T04:19:47.559Z,74.25
2022-08-03T04:22:14.127Z,73.83
2022-08-03T04:24:40.397Z,73.68
2022-08-03T04:27:06.809Z,73.45
2022-08-03T04:29:33.252Z,73.70
2022-08-03T04:31:59.614Z,73.37
2022-08-03T04:34:26.025Z,72.62
2022-08-03T04:36:52.377Z,72.08
2022-08-03T04:39:18.781Z,71.57
2022-08-03T04:42:07.312Z,71.08
2022-08-03T04:44:11.582Z,70.43
2022-08-03T04:46:37.966Z,70.03
2022-08-03T04:49:04.451Z,68.80
2022-08-03T04:51:30.843Z,68.31
2022-08-03T04:53:57.277Z,67.89
2022-08-03T04:56:23.641Z,66.19
2022-08-03T04:58:50.037Z,64.68
2022-08-03T05:01:16.527Z,62.00
2022-08-03T05:03:42.904Z,62.02
2022-08-03T05:06:09.671Z,60.37
2022-08-03T05:08:35.686Z,59.88
2022-08-03T05:11:02.056Z,59.11
2022-08-03T05:13:28.526Z,59.50
2022-08-03T05:15:54.928Z,58.78
2022-08-03T05:18:21.294Z,55.28
2022-08-03T05:20:47.663Z,50.50
2022-08-03T05:23:14.070Z,48.19
2022-08-03T05:25:40.456Z,46.83
2022-08-03T05:28:06.928Z,46.17
2022-08-03T05:30:34.339Z,48.51
2022-08-03T05:32:59.702Z,48.88
2022-08-03T05:36:01.412Z,47.86
2022-08-03T05:37:54.424Z,45.59
2022-08-03T05:40:18.928Z,45.25
2022-08-03T05:42:45.322Z,43.42
2022-08-03T05:45:11.703Z,44.06
2022-08-03T05:47:38.070Z,44.08
2022-08-03T05:50:04.459Z,43.13
2022-08-03T05:52:30.970Z,42.59
2022-08-03T05:54:57.803Z,41.58
2022-08-03T05:57:23.736Z,41.62
2022-08-03T05:59:54.635Z,41.98
2022-08-03T06:02:16.702Z,42.46
2022-08-03T06:04:42.901Z,44.13
2022-08-03T06:07:09.287Z,45.71
2022-08-03T06:10:36.610Z,43.80
2022-08-03T06:12:02.106Z,42.12
2022-08-03T06:14:28.473Z,41.02
2022-08-03T06:16:54.887Z,39.87
2022-08-03T06:19:21.248Z,40.43
2022-08-03T06:21:47.616Z,40.79
2022-08-03T06:24:14.069Z,40.56
2022-08-03T06:26:40.438Z,40.07
2022-08-03T06:29:06.803Z,38.64
2022-08-03T06:31:33.811Z,37.60
2022-08-03T06:34:34.095Z,37.96
2022-08-03T06:36:25.936Z,39.43
2022-08-03T06:38:52.336Z,40.45
2022-08-03T06:41:18.729Z,39.41
2022-08-03T06:44:03.904Z,39.32
2022-08-03T06:46:11.477Z,39.62
2022-08-03T06:48:38.253Z,39.46
2022-08-03T06:51:04.645Z,39.37
2022-08-03T06:53:31.162Z,38.10
2022-08-03T06:55:57.599Z,37.68
2022-08-03T06:58:24.003Z,38.28
2022-08-03T07:00:50.389Z,38.52
2022-08-03T07:03:16.751Z,37.07
2022-08-03T07:05:43.124Z,37.12
2022-08-03T07:08:09.526Z,37.96
2022-08-03T07:10:35.992Z,37.13
2022-08-03T07:13:03.453Z,37.90
2022-08-03T07:15:53.938Z,37.82
2022-08-03T07:17:56.183Z,36.89
2022-08-03T07:20:22.589Z,36.25
2022-08-03T07:22:48.971Z,37.72
2022-08-03T07:25:15.421Z,36.65
2022-08-03T07:27:41.769Z,36.39
2022-08-03T07:30:08.139Z,36.48
2022-08-03T07:32:34.515Z,35.83
2022-08-03T07:35:01.706Z,36.52
2022-08-03T07:37:27.318Z,37.68
2022-08-03T07:39:53.701Z,37.67
2022-08-03T07:42:20.108Z,37.38
2022-08-03T07:44:46.470Z,37.81
2022-08-03T07:47:22.188Z,37.49
2022-08-03T07:49:39.353Z,36.39
2022-08-03T07:52:05.763Z,36.14
2022-08-03T07:54:32.155Z,35.60
2022-08-03T07:56:58.520Z,35.01
2022-08-03T07:59:24.920Z,34.87
2022-08-03T08:01:51.335Z,34.12
2022-08-03T08:04:17.722Z,34.75
2022-08-03T08:06:44.108Z,33.48
2022-08-03T08:09:10.487Z,33.37
2022-08-03T08:11:39.995Z,32.92
2022-08-03T08:14:03.246Z,33.62
2022-08-03T08:16:29.682Z,32.50
2022-08-03T08:18:56.051Z,32.88
2022-08-03T08:21:22.427Z,32.18
2022-08-03T08:23:53.736Z,32.27
2022-08-03T08:26:15.169Z,32.36
2022-08-03T08:28:41.560Z,31.85
2022-08-03T08:31:07.939Z,31.99
2022-08-03T08:34:02.153Z,31.99
2022-08-03T08:36:00.749Z,31.51
2022-08-03T08:38:27.127Z,30.66
2022-08-03T08:40:53.521Z,30.44
2022-08-03T08:43:19.884Z,29.90
2022-08-03T08:45:46.243Z,31.01
2022-08-03T08:48:12.634Z,30.38
2022-08-03T08:50:39.012Z,29.75
2022-08-03T08:53:05.379Z,29.93
2022-08-03T08:55:58.342Z,29.55
2022-08-03T08:57:58.204Z,29.76
2022-08-03T09:00:24.593Z,29.91
2022-08-03T09:02:51.106Z,29.65
2022-08-03T09:05:17.487Z,29.48
2022-08-03T09:07:43.877Z,29.79
2022-08-03T09:10:13.299Z,29.02
2022-08-03T09:12:41.583Z,29.14
2022-08-03T09:15:16.421Z,29.57
2022-08-03T09:17:29.424Z,30.10
2022-08-03T09:20:03.177Z,30.78
2022-08-03T09:22:22.245Z,28.84
2022-08-03T09:25:03.179Z,29.60
2022-08-03T09:27:15.149Z,30.10
2022-08-03T09:29:41.404Z,30.53
2022-08-03T09:32:07.796Z,29.82
2022-08-03T09:34:34.177Z,29.38
2022-08-03T09:37:00.637Z,29.37
2022-08-03T09:39:41.508Z,30.61
2022-08-03T09:41:53.373Z,31.43
2022-08-03T09:44:25.146Z,30.88
2022-08-03T09:46:46.172Z,31.89
2022-08-03T09:49:12.584Z,32.59
2022-08-03T09:52:32.566Z,31.21
2022-08-03T09:54:09.563Z,29.04
2022-08-03T09:56:36.318Z,29.89
2022-08-03T09:58:58.054Z,29.93
2022-08-03T10:01:25.442Z,29.47
2022-08-03T10:04:03.414Z,29.24
2022-08-03T10:06:17.228Z,27.12
2022-08-03T10:08:43.656Z,26.85
2022-08-03T10:11:10.357Z,27.74
2022-08-03T10:13:36.744Z,27.01
2022-08-03T10:16:21.483Z,27.66
2022-08-03T10:18:29.503Z,27.69
2022-08-03T10:20:55.907Z,27.51
2022-08-03T10:23:22.282Z,26.88
2022-08-03T10:25:48.686Z,26.23
2022-08-03T10:28:15.099Z,27.63
2022-08-03T10:30:41.486Z,27.15
2022-08-03T10:33:15.326Z,27.59
2022-08-03T10:35:34.231Z,27.51
2022-08-03T10:38:00.614Z,27.24
2022-08-03T10:40:46.828Z,27.13
2022-08-03T10:42:53.388Z,26.53
2022-08-03T10:45:20.420Z,26.38
2022-08-03T10:47:46.783Z,26.13
2022-08-03T10:50:13.156Z,25.63
2022-08-03T10:52:42.202Z,25.76
2022-08-03T10:55:07.607Z,27.16
2022-08-03T10:57:32.421Z,26.86
2022-08-03T10:59:58.849Z,27.08
2022-08-03T11:02:25.208Z,27.50
2022-08-03T11:04:51.616Z,27.96
2022-08-03T11:07:18.233Z,28.24
2022-08-03T11:09:44.500Z,27.62
2022-08-03T11:12:10.871Z,27.84
2022-08-03T11:14:37.241Z,27.65
2022-08-03T11:17:03.615Z,27.20
2022-08-03T11:19:30.008Z,26.79
2022-08-03T11:21:56.394Z,26.62
2022-08-03T11:24:22.879Z,27.04
2022-08-03T11:26:49.314Z,27.23
2022-08-03T11:29:15.686Z,28.17
2022-08-03T11:31:50.917Z,29.04
2022-08-03T11:34:08.561Z,28.38
2022-08-03T11:36:34.944Z,27.44
2022-08-03T11:39:01.315Z,27.75
2022-08-03T11:41:27.702Z,29.37
2022-08-03T11:43:54.076Z,29.00
2022-08-03T11:46:28.227Z,27.40
2022-08-03T11:48:46.919Z,27.30
2022-08-03T11:51:13.332Z,26.73
2022-08-03T11:53:41.708Z,27.31
2022-08-03T11:56:06.210Z,26.72
2022-08-03T11:59:10.869Z,27.48
2022-08-03T12:00:59.067Z,27.54
2022-08-03T12:03:25.531Z,27.48
2022-08-03T12:05:52.668Z,27.16
2022-08-03T12:08:18.312Z,26.95
2022-08-03T12:10:44.740Z,27.66
2022-08-03T12:14:45.747Z,27.79
2022-08-03T12:15:37.554Z,26.97
2022-08-03T12:18:03.994Z,26.44
2022-08-03T12:20:31.483Z,27.17
2022-08-03T12:22:56.749Z,27.07
2022-08-03T12:25:38.796Z,26.21
2022-08-03T12:27:49.490Z,26.31
2022-08-03T12:30:15.863Z,26.43
2022-08-03T12:32:42.285Z,27.25
2022-08-03T12:35:08.667Z,27.86
2022-08-03T12:37:35.406Z,28.04
2022-08-03T12:40:07.969Z,27.87
2022-08-03T12:42:28.042Z,27.76
2022-08-03T12:44:54.621Z,27.04
2022-08-03T12:47:21.159Z,26.45
2022-08-03T12:49:47.215Z,27.15
2022-08-03T12:52:13.612Z,27.39
2022-08-03T12:54:39.998Z,26.94
2022-08-03T12:57:06.393Z,27.39
2022-08-03T12:59:35.381Z,27.61
2022-08-03T13:01:59.244Z,27.22
2022-08-03T13:04:25.566Z,27.41
2022-08-03T13:06:51.934Z,26.33
2022-08-03T13:09:18.308Z,25.62
2022-08-03T13:11:57.736Z,25.65
2022-08-03T13:14:16.831Z,27.08
2022-08-03T13:16:37.454Z,27.90
2022-08-03T13:19:03.818Z,28.78
2022-08-03T13:21:30.188Z,30.10
2022-08-03T13:23:56.590Z,30.02
2022-08-03T13:26:23.007Z,30.75
2022-08-03T13:28:49.377Z,31.06
2022-08-03T13:31:15.756Z,31.62
2022-08-03T13:33:42.164Z,31.46
2022-08-03T13:36:08.621Z,31.57
2022-08-03T13:38:35.077Z,31.44
2022-08-03T13:41:01.490Z,31.44
2022-08-03T13:43:27.847Z,31.85
2022-08-03T13:45:57.849Z,32.85
2022-08-03T13:48:36.782Z,34.92
2022-08-03T13:50:46.978Z,35.59
2022-08-03T13:53:13.447Z,35.79
2022-08-03T13:55:39.840Z,35.92
2022-08-03T13:58:07.618Z,36.24
2022-08-03T14:00:32.575Z,35.87
2022-08-03T14:03:05.210Z,35.42
2022-08-03T14:05:25.335Z,35.67
2022-08-03T14:07:51.743Z,36.02
2022-08-03T14:10:18.110Z,36.01
2022-08-03T14:12:44.490Z,36.72
2022-08-03T14:15:10.923Z,36.50
2022-08-03T14:17:42.191Z,37.06
2022-08-03T14:20:03.710Z,37.53
2022-08-03T14:22:29.998Z,37.28
2022-08-03T14:24:56.424Z,37.79
2022-08-03T14:27:23.028Z,38.16
2022-08-03T14:29:49.182Z,37.92
2022-08-03T14:32:15.616Z,38.39
2022-08-03T14:34:41.956Z,38.78
2022-08-03T14:37:08.334Z,39.01
2022-08-03T14:42:01.122Z,38.65
2022-08-03T14:44:27.509Z,39.18
2022-08-03T14:46:53.866Z,43.10
2022-08-03T14:50:38.131Z,47.82
2022-08-03T14:51:51.532Z,52.75
2022-08-03T14:54:13.080Z,63.00
2022-08-03T14:56:39.489Z,64.34
2022-08-03T14:59:05.853Z,67.00
2022-08-03T15:02:04.376Z,72.50
2022-08-03T15:03:58.616Z,71.61
2022-08-03T15:06:24.987Z,68.62
2022-08-03T15:09:22.593Z,66.49
2022-08-03T15:11:17.741Z,65.73
2022-08-03T15:13:44.233Z,63.24
2022-08-03T15:16:10.635Z,57.76
2022-08-03T15:18:37.061Z,53.94
2022-08-03T15:21:03.503Z,59.32
2022-08-03T15:23:29.886Z,61.10
2022-08-03T15:26:04.055Z,62.96
2022-08-03T15:28:22.703Z,63.94
2022-08-03T15:30:49.153Z,64.88
2022-08-03T15:33:15.511Z,70.15
2022-08-03T15:35:41.916Z,77.41
2022-08-03T15:38:09.572Z,100.00
2022-08-03T15:40:34.687Z,100.00
2022-08-03T15:43:01.055Z,100.00
2022-08-03T15:45:27.422Z,100.00
2022-08-03T15:47:53.798Z,100.00
2022-08-03T15:50:20.193Z,100.00
2022-08-03T15:52:46.625Z,91.68
2022-08-03T15:55:15.569Z,72.07
2022-08-03T15:59:04.450Z,80.06
2022-08-03T16:00:05.758Z,63.89
2022-08-03T16:02:32.158Z,76.41
2022-08-03T16:04:58.528Z,74.26
2022-08-03T16:07:24.927Z,71.69
2022-08-03T16:09:51.348Z,67.97
2022-08-03T16:12:17.716Z,75.01
2022-08-03T16:14:52.495Z,71.16
2022-08-03T16:17:10.448Z,87.99
2022-08-03T16:19:36.925Z,100.00
2022-08-03T16:22:03.362Z,100.00
2022-08-03T16:24:29.709Z,100.00
2022-08-03T16:26:56.077Z,100.00
2022-08-03T16:29:23.849Z,100.00
2022-08-03T16:31:50.873Z,100.00
2022-08-03T16:34:15.219Z,100.00
2022-08-03T16:36:41.703Z,100.00
2022-08-03T16:39:08.173Z,100.00
2022-08-03T16:41:54.102Z,100.00
2022-08-03T16:44:00.888Z,100.00
2022-08-03T16:46:27.330Z,100.00
2022-08-03T16:48:53.766Z,100.00
2022-08-03T16:51:20.125Z,100.00
2022-08-03T16:54:07.502Z,100.00
2022-08-03T16:56:12.897Z,100.00
2022-08-03T16:58:42.849Z,100.00
2022-08-03T17:01:10.746Z,100.00
2022-08-03T17:03:42.475Z,100.00
2022-08-03T17:05:59.525Z,100.00
2022-08-03T17:08:26.772Z,100.00
2022-08-03T17:10:51.310Z,100.00
2022-08-03T17:13:21.554Z,100.00
2022-08-03T17:15:57.799Z,100.00
2022-08-03T17:18:10.500Z,100.00
2022-08-03T17:20:36.887Z,100.00
2022-08-03T17:23:03.290Z,100.00
2022-08-03T17:25:51.216Z,94.03
2022-08-03T17:28:48.177Z,100.00
2022-08-03T17:30:22.416Z,100.00
2022-08-03T17:32:52.694Z,100.00
2022-08-03T17:35:15.164Z,100.00
2022-08-03T17:37:57.634Z,100.00
2022-08-03T17:40:07.953Z,100.00
2022-08-03T17:42:34.886Z,100.00
2022-08-03T17:45:01.601Z,100.00
2022-08-03T17:47:41.331Z,100.00
2022-08-03T17:49:53.508Z,100.00
2022-08-03T17:52:20.168Z,100.00
2022-08-03T17:55:50.517Z,100.00
2022-08-03T17:57:22.451Z,100.00
2022-08-03T17:59:51.565Z,100.00
2022-08-03T18:02:17.513Z,100.00
2022-08-03T18:04:31.956Z,100.00
2022-08-03T18:06:58.338Z,100.00
2022-08-03T18:10:03.388Z,100.00
2022-08-03T18:11:51.149Z,100.00
2022-08-03T18:14:17.516Z,100.00
2022-08-03T18:16:43.901Z,100.00
2022-08-03T18:19:13.709Z,100.00
2022-08-03T18:22:02.262Z,100.00
2022-08-03T18:24:03.083Z,100.00
2022-08-03T18:26:29.454Z,100.00
2022-08-03T18:28:55.825Z,100.00
2022-08-03T18:31:33.229Z,100.00
2022-08-03T18:34:19.023Z,100.00
2022-08-03T18:36:17.754Z,100.00
2022-08-03T18:38:41.386Z,100.00
2022-08-03T18:41:13.279Z,100.00
2022-08-03T18:43:46.544Z,100.00
2022-08-03T18:46:00.561Z,100.00
2022-08-03T18:48:27.142Z,100.00
2022-08-03T18:50:53.362Z,100.00
2022-08-03T18:53:20.286Z,100.00
2022-08-03T18:56:01.316Z,100.00
2022-08-03T18:58:15.927Z,100.00
2022-08-03T19:00:53.916Z,100.00
2022-08-03T19:03:05.290Z,100.00
2022-08-03T19:05:56.193Z,100.00
2022-08-03T19:07:59.751Z,100.00
2022-08-03T19:10:24.374Z,100.00
2022-08-03T19:12:50.757Z,100.00
2022-08-03T19:15:17.140Z,100.00
2022-08-03T19:17:43.521Z,100.00
2022-08-03T19:20:09.912Z,100.00
2022-08-03T19:22:36.321Z,100.00
2022-08-03T19:25:02.757Z,100.00
2022-08-03T19:27:29.152Z,100.00
2022-08-03T19:29:59.560Z,100.00
2022-08-03T19:32:22.192Z,100.00
2022-08-03T19:34:48.346Z,100.00
2022-08-03T19:37:14.760Z,100.00
2022-08-03T19:39:41.130Z,100.00
2022-08-03T19:42:12.169Z,100.00
2022-08-03T19:44:34.074Z,100.00
2022-08-03T19:47:00.439Z,100.00
2022-08-03T19:49:59.990Z,100.00
2022-08-03T19:53:11.763Z,100.00
2022-08-03T19:55:37.600Z,100.00
2022-08-03T19:58:03.959Z,100.00
2022-08-03T20:00:32.776Z,100.00
2022-08-03T20:02:56.728Z,100.00
2022-08-03T20:05:23.159Z,100.00
2022-08-03T20:07:49.555Z,100.00
2022-08-03T20:10:16.132Z,100.00
2022-08-03T20:12:42.381Z,100.00
2022-08-03T20:15:08.758Z,100.00
2022-08-03T20:17:54.748Z,100.00
2022-08-03T20:20:01.785Z,100.00
2022-08-03T20:22:28.127Z,100.00
2022-08-03T20:24:54.616Z,100.00
2022-08-03T20:27:21.045Z,100.00
2022-08-03T20:32:13.954Z,100.00
2022-08-03T20:34:40.436Z,100.00
2022-08-03T20:37:06.813Z,100.00
2022-08-03T20:39:33.244Z,100.00
2022-08-03T20:41:59.612Z,100.00
2022-08-03T20:44:26.232Z,100.00
2022-08-03T20:47:00.202Z,100.00
2022-08-03T20:49:19.264Z,100.00
2022-08-03T20:54:28.568Z,100.00
2022-08-03T20:56:38.560Z,100.00
2022-08-03T20:59:04.950Z,100.00
2022-08-03T21:01:36.620Z,100.00
2022-08-03T21:03:57.760Z,100.00
2022-08-03T21:06:27.858Z,100.00
2022-08-03T21:08:50.493Z,100.00
2022-08-03T21:11:16.916Z,100.00
2022-08-03T21:13:07.089Z,100.00
2022-08-03T21:13:07.585Z,100.00
2022-08-03T21:13:43.301Z,100.00
2022-08-03T21:16:13.842Z,100.00
2022-08-03T21:18:36.144Z,100.00
2022-08-03T21:21:02.521Z,100.00
2022-08-03T21:23:40.109Z,100.00
2022-08-03T21:25:55.349Z,100.00
2022-08-03T21:28:27.324Z,100.00
2022-08-03T21:30:48.100Z,100.00
2022-08-03T21:33:15.483Z,100.00
2022-08-03T21:35:41.874Z,100.00
2022-08-03T21:38:08.254Z,100.00
2022-08-03T21:40:34.662Z,100.00
2022-08-03T21:43:01.079Z,100.00
2022-08-03T21:45:27.467Z,100.00
2022-08-03T21:47:53.839Z,100.00
2022-08-03T21:50:20.228Z,100.00
2022-08-03T21:52:46.611Z,100.00
2022-08-03T21:55:18.549Z,100.00
2022-08-03T21:57:39.386Z,100.00
2022-08-03T22:00:05.750Z,100.00
2022-08-03T22:02:32.517Z,100.00
2022-08-03T22:04:58.502Z,100.00
2022-08-03T22:07:24.914Z,100.00
2022-08-03T22:09:51.734Z,100.00
2022-08-03T22:12:17.667Z,100.00
2022-08-03T22:14:44.045Z,100.00
2022-08-03T22:17:10.433Z,100.00
2022-08-03T22:19:36.789Z,100.00
2022-08-03T22:22:03.204Z,100.00
2022-08-03T22:24:29.585Z,100.00
2022-08-03T22:26:55.954Z,100.00
2022-08-03T22:29:22.346Z,100.00
2022-08-03T22:31:58.028Z,100.00
2022-08-03T22:34:15.165Z,100.00
2022-08-03T22:36:41.536Z,100.00
2022-08-03T22:39:07.923Z,100.00
2022-08-03T22:41:34.367Z,100.00
2022-08-03T22:44:04.390Z,100.00
2022-08-03T22:46:27.127Z,100.00
2022-08-03T22:48:53.559Z,100.00
2022-08-03T22:51:19.934Z,100.00
2022-08-03T22:53:46.323Z,100.00
2022-08-03T22:56:12.688Z,100.00
2022-08-03T22:58:39.085Z,100.00
2022-08-03T23:01:05.526Z,100.00
2022-08-03T23:03:58.827Z,100.00
2022-08-03T23:06:02.636Z,100.00
2022-08-03T23:08:24.715Z,100.00
2022-08-03T23:10:51.085Z,100.00
2022-08-03T23:13:17.523Z,100.00
2022-08-03T23:15:43.870Z,100.00
2022-08-03T23:18:10.257Z,100.00
2022-08-03T23:20:36.681Z,100.00
2022-08-03T23:23:03.022Z,100.00
2022-08-03T23:25:29.390Z,100.00
2022-08-03T23:28:05.559Z,100.00
2022-08-03T23:30:22.313Z,100.00
2022-08-03T23:32:54.598Z,100.00
2022-08-03T23:35:15.072Z,100.00
2022-08-03T23:38:21.519Z,100.00
2022-08-03T23:40:07.843Z,100.00
2022-08-03T23:42:34.234Z,100.00
2022-08-03T23:45:05.814Z,100.00
2022-08-03T23:47:46.853Z,100.00
2022-08-03T23:49:53.361Z,100.00
2022-08-03T23:52:19.732Z,100.00
2022-08-03T23:54:46.133Z,100.00
2022-08-03T23:57:12.521Z,100.00
2022-08-03T23:59:38.901Z,100.00
